sensor_id;sensor_type;location;lat;lon;timestamp;P1;durP1;ratioP1;P2;durP2;ratioP2
55575;SDS011;41437;45.478;9.116;2023-03-26T00:03:00;6.00;;;2.92;;
55575;SDS011;41437;45.478;9.116;2023-03-26T00:06:03;6.70;;;3.05;;
55575;SDS011;41437;45.478;9.116;2023-03-26T00:09:07;6.95;;;2.63;;
55575;SDS011;41437;45.478;9.116;2023-03-26T00:12:10;6.45;;;2.92;;
55575;SDS011;41437;45.478;9.116;2023-03-26T00:15:11;6.63;;;2.90;;
55575;SDS011;41437;45.478;9.116;2023-03-26T00:18:13;5.20;;;2.42;;
55575;SDS011;41437;45.478;9.116;2023-03-26T00:21:15;6.57;;;2.42;;
55575;SDS011;41437;45.478;9.116;2023-03-26T00:24:16;7.38;;;2.63;;
55575;SDS011;41437;45.478;9.116;2023-03-26T00:27:19;5.65;;;2.67;;
55575;SDS011;41437;45.478;9.116;2023-03-26T00:30:21;5.45;;;2.67;;
55575;SDS011;41437;45.478;9.116;2023-03-26T00:33:22;7.78;;;2.42;;
55575;SDS011;41437;45.478;9.116;2023-03-26T00:36:24;8.75;;;3.00;;
55575;SDS011;41437;45.478;9.116;2023-03-26T00:39:25;5.85;;;2.67;;
55575;SDS011;41437;45.478;9.116;2023-03-26T00:42:29;5.50;;;2.90;;
55575;SDS011;41437;45.478;9.116;2023-03-26T00:45:31;5.43;;;2.70;;
55575;SDS011;41437;45.478;9.116;2023-03-26T00:48:32;5.75;;;2.45;;
55575;SDS011;41437;45.478;9.116;2023-03-26T00:51:37;5.38;;;2.53;;
55575;SDS011;41437;45.478;9.116;2023-03-26T00:54:39;4.82;;;2.60;;
55575;SDS011;41437;45.478;9.116;2023-03-26T00:57:43;6.15;;;2.50;;
55575;SDS011;41437;45.478;9.116;2023-03-26T01:00:49;6.03;;;2.67;;
55575;SDS011;41437;45.478;9.116;2023-03-26T01:03:50;5.30;;;2.80;;
55575;SDS011;41437;45.478;9.116;2023-03-26T01:06:58;7.57;;;3.00;;
55575;SDS011;41437;45.478;9.116;2023-03-26T01:10:00;5.30;;;2.80;;
55575;SDS011;41437;45.478;9.116;2023-03-26T01:13:03;9.65;;;2.90;;
55575;SDS011;41437;45.478;9.116;2023-03-26T01:16:05;7.10;;;2.90;;
55575;SDS011;41437;45.478;9.116;2023-03-26T01:19:11;6.63;;;2.85;;
55575;SDS011;41437;45.478;9.116;2023-03-26T01:22:16;6.40;;;2.67;;
55575;SDS011;41437;45.478;9.116;2023-03-26T01:25:20;4.53;;;2.67;;
55575;SDS011;41437;45.478;9.116;2023-03-26T01:28:23;6.43;;;2.80;;
55575;SDS011;41437;45.478;9.116;2023-03-26T01:31:29;5.40;;;2.83;;
55575;SDS011;41437;45.478;9.116;2023-03-26T01:34:40;5.78;;;3.17;;
55575;SDS011;41437;45.478;9.116;2023-03-26T01:37:48;7.47;;;3.13;;
55575;SDS011;41437;45.478;9.116;2023-03-26T01:40:56;7.28;;;2.90;;
55575;SDS011;41437;45.478;9.116;2023-03-26T01:44:00;6.43;;;3.03;;
55575;SDS011;41437;45.478;9.116;2023-03-26T01:47:03;5.68;;;2.80;;
55575;SDS011;41437;45.478;9.116;2023-03-26T01:50:06;6.22;;;2.95;;
55575;SDS011;41437;45.478;9.116;2023-03-26T01:53:07;7.10;;;3.10;;
55575;SDS011;41437;45.478;9.116;2023-03-26T01:56:12;6.20;;;3.08;;
55575;SDS011;41437;45.478;9.116;2023-03-26T01:59:21;6.10;;;3.00;;
55575;SDS011;41437;45.478;9.116;2023-03-26T02:02:25;6.22;;;3.30;;
55575;SDS011;41437;45.478;9.116;2023-03-26T02:05:31;6.63;;;3.00;;
55575;SDS011;41437;45.478;9.116;2023-03-26T02:08:34;6.32;;;3.00;;
55575;SDS011;41437;45.478;9.116;2023-03-26T02:11:39;5.47;;;3.10;;
55575;SDS011;41437;45.478;9.116;2023-03-26T02:14:41;5.82;;;3.08;;
55575;SDS011;41437;45.478;9.116;2023-03-26T02:17:42;6.38;;;2.92;;
55575;SDS011;41437;45.478;9.116;2023-03-26T02:20:44;7.53;;;3.25;;
55575;SDS011;41437;45.478;9.116;2023-03-26T02:23:46;7.55;;;2.80;;
55575;SDS011;41437;45.478;9.116;2023-03-26T02:26:49;5.88;;;2.97;;
55575;SDS011;41437;45.478;9.116;2023-03-26T02:29:50;6.10;;;3.00;;
55575;SDS011;41437;45.478;9.116;2023-03-26T02:32:52;5.78;;;3.22;;
55575;SDS011;41437;45.478;9.116;2023-03-26T02:35:53;6.40;;;2.97;;
55575;SDS011;41437;45.478;9.116;2023-03-26T02:38:58;5.10;;;2.80;;
55575;SDS011;41437;45.478;9.116;2023-03-26T02:42:01;7.00;;;2.90;;
55575;SDS011;41437;45.478;9.116;2023-03-26T02:45:03;7.35;;;3.30;;
55575;SDS011;41437;45.478;9.116;2023-03-26T02:48:04;7.25;;;2.80;;
55575;SDS011;41437;45.478;9.116;2023-03-26T02:51:06;6.28;;;3.00;;
55575;SDS011;41437;45.478;9.116;2023-03-26T02:54:08;6.47;;;3.40;;
55575;SDS011;41437;45.478;9.116;2023-03-26T02:57:11;6.50;;;3.13;;
55575;SDS011;41437;45.478;9.116;2023-03-26T03:00:13;7.07;;;3.03;;
55575;SDS011;41437;45.478;9.116;2023-03-26T03:03:14;8.15;;;3.28;;
55575;SDS011;41437;45.478;9.116;2023-03-26T03:06:16;7.68;;;3.08;;
55575;SDS011;41437;45.478;9.116;2023-03-26T03:09:17;7.00;;;3.40;;
55575;SDS011;41437;45.478;9.116;2023-03-26T03:12:20;8.52;;;3.10;;
55575;SDS011;41437;45.478;9.116;2023-03-26T03:15:21;7.53;;;3.45;;
55575;SDS011;41437;45.478;9.116;2023-03-26T03:18:23;8.63;;;3.83;;
55575;SDS011;41437;45.478;9.116;2023-03-26T03:21:25;7.07;;;3.47;;
55575;SDS011;41437;45.478;9.116;2023-03-26T03:24:27;7.47;;;4.32;;
55575;SDS011;41437;45.478;9.116;2023-03-26T03:27:29;9.38;;;4.55;;
55575;SDS011;41437;45.478;9.116;2023-03-26T03:30:31;10.63;;;4.72;;
55575;SDS011;41437;45.478;9.116;2023-03-26T03:33:32;9.52;;;5.00;;
55575;SDS011;41437;45.478;9.116;2023-03-26T03:36:34;10.57;;;5.80;;
55575;SDS011;41437;45.478;9.116;2023-03-26T03:39:37;10.95;;;5.88;;
55575;SDS011;41437;45.478;9.116;2023-03-26T03:42:40;10.68;;;6.80;;
55575;SDS011;41437;45.478;9.116;2023-03-26T03:45:41;12.48;;;7.80;;
55575;SDS011;41437;45.478;9.116;2023-03-26T03:48:42;12.82;;;7.95;;
55575;SDS011;41437;45.478;9.116;2023-03-26T03:51:48;15.88;;;8.98;;
55575;SDS011;41437;45.478;9.116;2023-03-26T03:54:49;15.65;;;9.63;;
55575;SDS011;41437;45.478;9.116;2023-03-26T03:57:52;15.90;;;9.73;;
55575;SDS011;41437;45.478;9.116;2023-03-26T04:03:59;16.08;;;11.07;;
55575;SDS011;41437;45.478;9.116;2023-03-26T04:07:01;16.42;;;11.57;;
55575;SDS011;41437;45.478;9.116;2023-03-26T04:10:03;20.10;;;12.38;;
55575;SDS011;41437;45.478;9.116;2023-03-26T04:13:07;18.15;;;12.32;;
55575;SDS011;41437;45.478;9.116;2023-03-26T04:16:09;18.40;;;12.55;;
55575;SDS011;41437;45.478;9.116;2023-03-26T04:19:10;19.75;;;12.48;;
55575;SDS011;41437;45.478;9.116;2023-03-26T04:22:13;17.75;;;12.77;;
55575;SDS011;41437;45.478;9.116;2023-03-26T04:25:17;19.58;;;12.88;;
55575;SDS011;41437;45.478;9.116;2023-03-26T04:28:24;17.55;;;12.38;;
55575;SDS011;41437;45.478;9.116;2023-03-26T04:31:27;22.65;;;13.23;;
55575;SDS011;41437;45.478;9.116;2023-03-26T04:34:29;23.65;;;13.57;;
55575;SDS011;41437;45.478;9.116;2023-03-26T04:37:31;17.40;;;11.88;;
55575;SDS011;41437;45.478;9.116;2023-03-26T04:40:33;20.88;;;14.07;;
55575;SDS011;41437;45.478;9.116;2023-03-26T04:43:36;23.48;;;15.30;;
55575;SDS011;41437;45.478;9.116;2023-03-26T04:46:46;23.10;;;15.18;;
55575;SDS011;41437;45.478;9.116;2023-03-26T04:49:47;23.92;;;14.82;;
55575;SDS011;41437;45.478;9.116;2023-03-26T04:52:49;29.92;;;16.75;;
55575;SDS011;41437;45.478;9.116;2023-03-26T04:55:52;25.80;;;16.23;;
55575;SDS011;41437;45.478;9.116;2023-03-26T04:58:58;23.02;;;16.17;;
55575;SDS011;41437;45.478;9.116;2023-03-26T05:05:01;26.90;;;16.92;;
55575;SDS011;41437;45.478;9.116;2023-03-26T05:08:03;25.25;;;17.80;;
55575;SDS011;41437;45.478;9.116;2023-03-26T05:11:04;26.38;;;17.92;;
55575;SDS011;41437;45.478;9.116;2023-03-26T05:14:11;28.70;;;18.13;;
55575;SDS011;41437;45.478;9.116;2023-03-26T05:17:13;24.73;;;17.90;;
55575;SDS011;41437;45.478;9.116;2023-03-26T05:20:18;24.65;;;17.17;;
55575;SDS011;41437;45.478;9.116;2023-03-26T05:23:20;28.25;;;17.20;;
55575;SDS011;41437;45.478;9.116;2023-03-26T05:26:21;24.10;;;17.10;;
55575;SDS011;41437;45.478;9.116;2023-03-26T05:29:24;24.52;;;17.33;;
55575;SDS011;41437;45.478;9.116;2023-03-26T05:32:26;24.73;;;17.73;;
55575;SDS011;41437;45.478;9.116;2023-03-26T05:35:27;28.05;;;17.77;;
55575;SDS011;41437;45.478;9.116;2023-03-26T05:38:28;27.23;;;18.00;;
55575;SDS011;41437;45.478;9.116;2023-03-26T05:41:30;27.60;;;18.88;;
55575;SDS011;41437;45.478;9.116;2023-03-26T05:44:33;26.52;;;18.48;;
55575;SDS011;41437;45.478;9.116;2023-03-26T05:47:34;27.77;;;18.20;;
55575;SDS011;41437;45.478;9.116;2023-03-26T05:50:35;29.67;;;19.40;;
55575;SDS011;41437;45.478;9.116;2023-03-26T05:53:37;28.13;;;19.60;;
55575;SDS011;41437;45.478;9.116;2023-03-26T05:56:38;28.80;;;20.70;;
55575;SDS011;41437;45.478;9.116;2023-03-26T05:59:41;30.73;;;21.77;;
55575;SDS011;41437;45.478;9.116;2023-03-26T06:02:42;31.60;;;22.40;;
55575;SDS011;41437;45.478;9.116;2023-03-26T06:05:45;31.77;;;21.77;;
55575;SDS011;41437;45.478;9.116;2023-03-26T06:08:47;31.27;;;21.25;;
55575;SDS011;41437;45.478;9.116;2023-03-26T06:11:49;27.95;;;21.17;;
55575;SDS011;41437;45.478;9.116;2023-03-26T06:14:51;31.13;;;20.95;;
55575;SDS011;41437;45.478;9.116;2023-03-26T06:17:53;29.30;;;21.55;;
55575;SDS011;41437;45.478;9.116;2023-03-26T06:20:54;32.78;;;21.75;;
55575;SDS011;41437;45.478;9.116;2023-03-26T06:23:56;28.60;;;21.02;;
55575;SDS011;41437;45.478;9.116;2023-03-26T06:26:57;29.02;;;20.63;;
55575;SDS011;41437;45.478;9.116;2023-03-26T06:30:00;31.50;;;21.23;;
55575;SDS011;41437;45.478;9.116;2023-03-26T06:33:01;25.75;;;19.30;;
55575;SDS011;41437;45.478;9.116;2023-03-26T06:36:03;27.02;;;19.88;;
55575;SDS011;41437;45.478;9.116;2023-03-26T06:39:05;29.27;;;18.98;;
55575;SDS011;41437;45.478;9.116;2023-03-26T06:42:06;27.20;;;18.65;;
55575;SDS011;41437;45.478;9.116;2023-03-26T06:45:09;25.58;;;17.85;;
55575;SDS011;41437;45.478;9.116;2023-03-26T06:48:11;27.80;;;18.58;;
55575;SDS011;41437;45.478;9.116;2023-03-26T06:51:12;27.63;;;16.95;;
55575;SDS011;41437;45.478;9.116;2023-03-26T06:54:13;24.67;;;17.38;;
55575;SDS011;41437;45.478;9.116;2023-03-26T06:57:15;22.83;;;17.45;;
55575;SDS011;41437;45.478;9.116;2023-03-26T07:00:18;22.42;;;16.25;;
55575;SDS011;41437;45.478;9.116;2023-03-26T07:03:20;23.77;;;16.57;;
55575;SDS011;41437;45.478;9.116;2023-03-26T07:06:22;22.90;;;16.17;;
55575;SDS011;41437;45.478;9.116;2023-03-26T07:09:23;23.42;;;16.27;;
55575;SDS011;41437;45.478;9.116;2023-03-26T07:12:25;24.65;;;17.00;;
55575;SDS011;41437;45.478;9.116;2023-03-26T07:15:28;22.73;;;16.42;;
55575;SDS011;41437;45.478;9.116;2023-03-26T07:18:29;22.00;;;15.55;;
55575;SDS011;41437;45.478;9.116;2023-03-26T07:21:31;25.80;;;15.90;;
55575;SDS011;41437;45.478;9.116;2023-03-26T07:24:33;23.30;;;15.80;;
55575;SDS011;41437;45.478;9.116;2023-03-26T07:27:36;21.38;;;14.90;;
55575;SDS011;41437;45.478;9.116;2023-03-26T07:30:45;20.85;;;13.95;;
55575;SDS011;41437;45.478;9.116;2023-03-26T07:33:48;22.80;;;14.00;;
55575;SDS011;41437;45.478;9.116;2023-03-26T07:36:53;24.42;;;13.35;;
55575;SDS011;41437;45.478;9.116;2023-03-26T07:39:57;20.35;;;12.75;;
55575;SDS011;41437;45.478;9.116;2023-03-26T07:43:02;22.88;;;12.45;;
55575;SDS011;41437;45.478;9.116;2023-03-26T07:46:09;21.75;;;12.93;;
55575;SDS011;41437;45.478;9.116;2023-03-26T07:49:11;18.17;;;12.25;;
55575;SDS011;41437;45.478;9.116;2023-03-26T07:52:14;19.40;;;11.70;;
55575;SDS011;41437;45.478;9.116;2023-03-26T07:55:16;17.30;;;11.82;;
55575;SDS011;41437;45.478;9.116;2023-03-26T08:01:48;16.35;;;10.52;;
55575;SDS011;41437;45.478;9.116;2023-03-26T08:04:54;17.70;;;10.43;;
55575;SDS011;41437;45.478;9.116;2023-03-26T08:08:01;15.70;;;10.35;;
55575;SDS011;41437;45.478;9.116;2023-03-26T08:11:07;14.88;;;9.27;;
55575;SDS011;41437;45.478;9.116;2023-03-26T08:14:15;14.85;;;9.73;;
55575;SDS011;41437;45.478;9.116;2023-03-26T08:17:22;17.98;;;10.45;;
55575;SDS011;41437;45.478;9.116;2023-03-26T08:20:31;17.88;;;9.95;;
55575;SDS011;41437;45.478;9.116;2023-03-26T08:23:37;15.15;;;9.55;;
55575;SDS011;41437;45.478;9.116;2023-03-26T08:26:41;13.82;;;9.63;;
55575;SDS011;41437;45.478;9.116;2023-03-26T08:29:48;14.98;;;9.68;;
55575;SDS011;41437;45.478;9.116;2023-03-26T08:32:58;14.63;;;9.52;;
55575;SDS011;41437;45.478;9.116;2023-03-26T08:36:00;14.02;;;9.25;;
55575;SDS011;41437;45.478;9.116;2023-03-26T08:39:02;13.93;;;8.90;;
55575;SDS011;41437;45.478;9.116;2023-03-26T08:42:12;14.55;;;9.43;;
55575;SDS011;41437;45.478;9.116;2023-03-26T08:45:24;13.27;;;9.13;;
55575;SDS011;41437;45.478;9.116;2023-03-26T08:48:36;12.27;;;8.70;;
55575;SDS011;41437;45.478;9.116;2023-03-26T08:51:53;13.10;;;8.95;;
55575;SDS011;41437;45.478;9.116;2023-03-26T08:58:36;18.00;;;9.60;;
55575;SDS011;41437;45.478;9.116;2023-03-26T09:08:40;14.48;;;8.75;;
55575;SDS011;41437;45.478;9.116;2023-03-26T09:11:49;14.45;;;9.35;;
55575;SDS011;41437;45.478;9.116;2023-03-26T09:15:00;14.93;;;9.05;;
55575;SDS011;41437;45.478;9.116;2023-03-26T09:18:31;12.48;;;8.48;;
55575;SDS011;41437;45.478;9.116;2023-03-26T09:21:52;12.95;;;8.40;;
55575;SDS011;41437;45.478;9.116;2023-03-26T09:25:16;12.65;;;8.48;;
55575;SDS011;41437;45.478;9.116;2023-03-26T09:35:12;13.30;;;8.65;;
55575;SDS011;41437;45.478;9.116;2023-03-26T09:38:16;12.57;;;8.38;;
55575;SDS011;41437;45.478;9.116;2023-03-26T09:41:28;12.02;;;8.18;;
55575;SDS011;41437;45.478;9.116;2023-03-26T09:44:36;14.80;;;9.95;;
55575;SDS011;41437;45.478;9.116;2023-03-26T09:47:45;12.27;;;8.60;;
55575;SDS011;41437;45.478;9.116;2023-03-26T09:50:55;13.68;;;7.72;;
55575;SDS011;41437;45.478;9.116;2023-03-26T09:54:04;11.95;;;7.72;;
55575;SDS011;41437;45.478;9.116;2023-03-26T09:57:14;14.13;;;9.00;;
55575;SDS011;41437;45.478;9.116;2023-03-26T10:00:22;12.50;;;8.93;;
55575;SDS011;41437;45.478;9.116;2023-03-26T10:03:31;14.38;;;9.07;;
55575;SDS011;41437;45.478;9.116;2023-03-26T10:06:40;13.65;;;8.43;;
55575;SDS011;41437;45.478;9.116;2023-03-26T10:09:47;12.57;;;7.30;;
55575;SDS011;41437;45.478;9.116;2023-03-26T10:12:58;11.00;;;6.90;;
55575;SDS011;41437;45.478;9.116;2023-03-26T10:16:09;10.38;;;6.57;;
55575;SDS011;41437;45.478;9.116;2023-03-26T10:19:21;15.25;;;8.27;;
55575;SDS011;41437;45.478;9.116;2023-03-26T10:22:30;13.10;;;8.20;;
55575;SDS011;41437;45.478;9.116;2023-03-26T10:25:48;14.15;;;8.05;;
55575;SDS011;41437;45.478;9.116;2023-03-26T10:28:59;13.05;;;8.85;;
55575;SDS011;41437;45.478;9.116;2023-03-26T10:32:06;13.63;;;8.73;;
55575;SDS011;41437;45.478;9.116;2023-03-26T10:35:17;14.45;;;9.48;;
55575;SDS011;41437;45.478;9.116;2023-03-26T10:38:22;18.25;;;9.57;;
55575;SDS011;41437;45.478;9.116;2023-03-26T10:41:27;14.43;;;9.23;;
55575;SDS011;41437;45.478;9.116;2023-03-26T10:44:40;12.15;;;9.00;;
55575;SDS011;41437;45.478;9.116;2023-03-26T10:47:54;11.95;;;8.80;;
55575;SDS011;41437;45.478;9.116;2023-03-26T10:51:10;10.82;;;8.70;;
55575;SDS011;41437;45.478;9.116;2023-03-26T10:54:14;13.32;;;8.75;;
55575;SDS011;41437;45.478;9.116;2023-03-26T10:57:33;13.73;;;9.90;;
55575;SDS011;41437;45.478;9.116;2023-03-26T11:00:40;15.95;;;10.18;;
55575;SDS011;41437;45.478;9.116;2023-03-26T11:03:45;14.60;;;8.93;;
55575;SDS011;41437;45.478;9.116;2023-03-26T11:06:53;12.48;;;8.77;;
55575;SDS011;41437;45.478;9.116;2023-03-26T11:09:58;12.70;;;9.10;;
55575;SDS011;41437;45.478;9.116;2023-03-26T11:13:02;17.52;;;9.70;;
55575;SDS011;41437;45.478;9.116;2023-03-26T11:16:14;15.52;;;9.27;;
55575;SDS011;41437;45.478;9.116;2023-03-26T11:19:19;13.27;;;9.32;;
55575;SDS011;41437;45.478;9.116;2023-03-26T11:22:22;13.77;;;9.60;;
55575;SDS011;41437;45.478;9.116;2023-03-26T11:25:33;14.68;;;9.50;;
55575;SDS011;41437;45.478;9.116;2023-03-26T11:28:50;16.05;;;10.07;;
55575;SDS011;41437;45.478;9.116;2023-03-26T11:31:59;14.82;;;9.57;;
55575;SDS011;41437;45.478;9.116;2023-03-26T11:35:02;12.98;;;9.20;;
55575;SDS011;41437;45.478;9.116;2023-03-26T11:38:10;14.15;;;10.70;;
55575;SDS011;41437;45.478;9.116;2023-03-26T11:41:14;14.43;;;10.43;;
55575;SDS011;41437;45.478;9.116;2023-03-26T11:44:18;16.70;;;9.75;;
55575;SDS011;41437;45.478;9.116;2023-03-26T11:47:32;12.32;;;9.45;;
55575;SDS011;41437;45.478;9.116;2023-03-26T11:50:37;12.27;;;8.18;;
55575;SDS011;41437;45.478;9.116;2023-03-26T11:53:41;14.25;;;9.45;;
55575;SDS011;41437;45.478;9.116;2023-03-26T11:56:46;14.15;;;9.43;;
55575;SDS011;41437;45.478;9.116;2023-03-26T11:59:49;17.13;;;9.48;;
55575;SDS011;41437;45.478;9.116;2023-03-26T12:02:56;12.98;;;9.95;;
55575;SDS011;41437;45.478;9.116;2023-03-26T12:05:58;14.48;;;9.25;;
55575;SDS011;41437;45.478;9.116;2023-03-26T12:09:02;13.00;;;9.23;;
55575;SDS011;41437;45.478;9.116;2023-03-26T12:12:03;13.20;;;8.95;;
55575;SDS011;41437;45.478;9.116;2023-03-26T12:15:08;15.25;;;8.45;;
55575;SDS011;41437;45.478;9.116;2023-03-26T12:18:23;15.05;;;8.10;;
55575;SDS011;41437;45.478;9.116;2023-03-26T12:21:25;13.40;;;9.75;;
55575;SDS011;41437;45.478;9.116;2023-03-26T12:24:28;14.65;;;9.50;;
55575;SDS011;41437;45.478;9.116;2023-03-26T12:27:29;16.27;;;9.80;;
55575;SDS011;41437;45.478;9.116;2023-03-26T12:30:32;13.43;;;8.70;;
55575;SDS011;41437;45.478;9.116;2023-03-26T12:33:38;13.82;;;8.30;;
55575;SDS011;41437;45.478;9.116;2023-03-26T12:36:39;14.18;;;9.20;;
55575;SDS011;41437;45.478;9.116;2023-03-26T12:39:48;13.13;;;8.93;;
55575;SDS011;41437;45.478;9.116;2023-03-26T12:42:50;16.02;;;9.13;;
55575;SDS011;41437;45.478;9.116;2023-03-26T12:45:53;20.20;;;9.75;;
55575;SDS011;41437;45.478;9.116;2023-03-26T12:48:57;17.15;;;10.23;;
55575;SDS011;41437;45.478;9.116;2023-03-26T12:52:05;17.75;;;9.45;;
55575;SDS011;41437;45.478;9.116;2023-03-26T12:55:16;17.27;;;9.52;;
55575;SDS011;41437;45.478;9.116;2023-03-26T12:58:24;16.02;;;9.38;;
55575;SDS011;41437;45.478;9.116;2023-03-26T13:01:30;14.27;;;9.85;;
55575;SDS011;41437;45.478;9.116;2023-03-26T13:08:12;18.33;;;10.63;;
55575;SDS011;41437;45.478;9.116;2023-03-26T13:11:18;18.20;;;10.65;;
55575;SDS011;41437;45.478;9.116;2023-03-26T13:14:38;15.55;;;9.10;;
55575;SDS011;41437;45.478;9.116;2023-03-26T13:17:45;15.90;;;9.05;;
55575;SDS011;41437;45.478;9.116;2023-03-26T13:20:49;15.75;;;7.85;;
55575;SDS011;41437;45.478;9.116;2023-03-26T13:24:00;12.73;;;8.30;;
55575;SDS011;41437;45.478;9.116;2023-03-26T13:27:06;15.73;;;9.65;;
55575;SDS011;41437;45.478;9.116;2023-03-26T13:30:14;20.23;;;10.18;;
55575;SDS011;41437;45.478;9.116;2023-03-26T13:33:25;15.13;;;9.57;;
55575;SDS011;41437;45.478;9.116;2023-03-26T13:36:29;15.43;;;9.55;;
55575;SDS011;41437;45.478;9.116;2023-03-26T13:39:35;15.38;;;10.25;;
55575;SDS011;41437;45.478;9.116;2023-03-26T13:42:41;17.45;;;8.88;;
55575;SDS011;41437;45.478;9.116;2023-03-26T13:45:50;16.20;;;9.25;;
55575;SDS011;41437;45.478;9.116;2023-03-26T13:48:53;17.15;;;10.30;;
55575;SDS011;41437;45.478;9.116;2023-03-26T13:51:56;16.92;;;10.23;;
55575;SDS011;41437;45.478;9.116;2023-03-26T13:55:09;16.83;;;10.30;;
55575;SDS011;41437;45.478;9.116;2023-03-26T13:58:15;15.35;;;9.00;;
55575;SDS011;41437;45.478;9.116;2023-03-26T14:01:18;16.98;;;9.98;;
55575;SDS011;41437;45.478;9.116;2023-03-26T14:04:22;19.03;;;11.40;;
55575;SDS011;41437;45.478;9.116;2023-03-26T14:07:26;18.52;;;11.63;;
55575;SDS011;41437;45.478;9.116;2023-03-26T14:10:32;17.23;;;12.48;;
55575;SDS011;41437;45.478;9.116;2023-03-26T14:13:37;22.63;;;14.05;;
55575;SDS011;41437;45.478;9.116;2023-03-26T14:16:42;20.75;;;13.73;;
55575;SDS011;41437;45.478;9.116;2023-03-26T14:19:50;19.13;;;13.30;;
55575;SDS011;41437;45.478;9.116;2023-03-26T14:22:57;21.85;;;14.25;;
55575;SDS011;41437;45.478;9.116;2023-03-26T14:26:07;21.33;;;14.25;;
55575;SDS011;41437;45.478;9.116;2023-03-26T14:32:42;21.75;;;13.55;;
55575;SDS011;41437;45.478;9.116;2023-03-26T14:35:45;20.05;;;13.30;;
55575;SDS011;41437;45.478;9.116;2023-03-26T14:39:12;18.05;;;12.93;;
55575;SDS011;41437;45.478;9.116;2023-03-26T14:42:20;20.90;;;12.68;;
55575;SDS011;41437;45.478;9.116;2023-03-26T14:45:26;21.13;;;13.40;;
55575;SDS011;41437;45.478;9.116;2023-03-26T14:52:01;19.50;;;11.73;;
55575;SDS011;41437;45.478;9.116;2023-03-26T14:55:04;15.27;;;10.85;;
55575;SDS011;41437;45.478;9.116;2023-03-26T14:58:17;14.43;;;9.32;;
55575;SDS011;41437;45.478;9.116;2023-03-26T15:01:24;10.43;;;6.53;;
55575;SDS011;41437;45.478;9.116;2023-03-26T15:04:33;10.73;;;6.22;;
55575;SDS011;41437;45.478;9.116;2023-03-26T15:07:59;11.05;;;7.00;;
55575;SDS011;41437;45.478;9.116;2023-03-26T15:11:09;14.85;;;8.55;;
55575;SDS011;41437;45.478;9.116;2023-03-26T15:21:06;14.23;;;8.45;;
55575;SDS011;41437;45.478;9.116;2023-03-26T15:24:20;13.52;;;8.18;;
55575;SDS011;41437;45.478;9.116;2023-03-26T15:31:04;13.30;;;8.55;;
55575;SDS011;41437;45.478;9.116;2023-03-26T15:34:19;13.85;;;8.48;;
55575;SDS011;41437;45.478;9.116;2023-03-26T15:40:52;12.73;;;8.70;;
55575;SDS011;41437;45.478;9.116;2023-03-26T15:44:04;14.55;;;9.57;;
55575;SDS011;41437;45.478;9.116;2023-03-26T15:47:21;14.70;;;9.82;;
55575;SDS011;41437;45.478;9.116;2023-03-26T15:50:30;13.55;;;9.43;;
55575;SDS011;41437;45.478;9.116;2023-03-26T15:53:35;14.20;;;9.25;;
55575;SDS011;41437;45.478;9.116;2023-03-26T15:56:50;14.55;;;9.45;;
55575;SDS011;41437;45.478;9.116;2023-03-26T16:03:27;14.70;;;9.93;;
55575;SDS011;41437;45.478;9.116;2023-03-26T16:06:33;16.50;;;9.60;;
55575;SDS011;41437;45.478;9.116;2023-03-26T16:09:44;16.85;;;10.57;;
55575;SDS011;41437;45.478;9.116;2023-03-26T16:13:13;18.33;;;10.32;;
55575;SDS011;41437;45.478;9.116;2023-03-26T16:16:23;13.60;;;9.65;;
55575;SDS011;41437;45.478;9.116;2023-03-26T16:19:45;14.55;;;10.68;;
55575;SDS011;41437;45.478;9.116;2023-03-26T16:22:54;12.77;;;8.45;;
55575;SDS011;41437;45.478;9.116;2023-03-26T16:25:59;7.97;;;5.85;;
55575;SDS011;41437;45.478;9.116;2023-03-26T16:29:15;9.85;;;6.30;;
55575;SDS011;41437;45.478;9.116;2023-03-26T16:32:20;9.27;;;6.20;;
55575;SDS011;41437;45.478;9.116;2023-03-26T16:35:38;10.77;;;5.68;;
55575;SDS011;41437;45.478;9.116;2023-03-26T16:38:47;8.95;;;5.15;;
55575;SDS011;41437;45.478;9.116;2023-03-26T16:41:59;8.32;;;5.28;;
55575;SDS011;41437;45.478;9.116;2023-03-26T16:45:07;8.55;;;4.60;;
55575;SDS011;41437;45.478;9.116;2023-03-26T16:48:15;6.28;;;3.20;;
55575;SDS011;41437;45.478;9.116;2023-03-26T16:51:30;5.07;;;2.85;;
55575;SDS011;41437;45.478;9.116;2023-03-26T16:54:40;5.90;;;2.30;;
55575;SDS011;41437;45.478;9.116;2023-03-26T16:57:46;4.30;;;2.28;;
55575;SDS011;41437;45.478;9.116;2023-03-26T17:00:58;4.82;;;2.40;;
55575;SDS011;41437;45.478;9.116;2023-03-26T17:04:05;4.40;;;2.30;;
55575;SDS011;41437;45.478;9.116;2023-03-26T17:07:11;5.00;;;2.20;;
55575;SDS011;41437;45.478;9.116;2023-03-26T17:10:18;4.72;;;2.03;;
55575;SDS011;41437;45.478;9.116;2023-03-26T17:13:23;5.05;;;2.28;;
55575;SDS011;41437;45.478;9.116;2023-03-26T17:16:30;4.13;;;2.30;;
55575;SDS011;41437;45.478;9.116;2023-03-26T17:19:33;3.83;;;2.03;;
55575;SDS011;41437;45.478;9.116;2023-03-26T17:22:38;5.90;;;2.50;;
55575;SDS011;41437;45.478;9.116;2023-03-26T17:25:42;5.10;;;2.50;;
55575;SDS011;41437;45.478;9.116;2023-03-26T17:28:52;5.20;;;2.30;;
55575;SDS011;41437;45.478;9.116;2023-03-26T17:31:59;6.10;;;2.80;;
55575;SDS011;41437;45.478;9.116;2023-03-26T17:35:02;6.38;;;2.60;;
55575;SDS011;41437;45.478;9.116;2023-03-26T17:44:45;4.45;;;2.88;;
55575;SDS011;41437;45.478;9.116;2023-03-26T17:47:49;5.65;;;3.10;;
55575;SDS011;41437;45.478;9.116;2023-03-26T17:50:53;13.80;;;3.13;;
55575;SDS011;41437;45.478;9.116;2023-03-26T17:53:55;6.18;;;3.00;;
55575;SDS011;41437;45.478;9.116;2023-03-26T17:56:59;7.07;;;3.60;;
55575;SDS011;41437;45.478;9.116;2023-03-26T18:00:00;6.47;;;3.55;;
55575;SDS011;41437;45.478;9.116;2023-03-26T18:03:09;6.93;;;3.25;;
55575;SDS011;41437;45.478;9.116;2023-03-26T18:06:17;6.25;;;3.50;;
55575;SDS011;41437;45.478;9.116;2023-03-26T18:09:27;6.78;;;3.50;;
55575;SDS011;41437;45.478;9.116;2023-03-26T18:12:35;6.40;;;3.75;;
55575;SDS011;41437;45.478;9.116;2023-03-26T18:15:47;7.28;;;4.25;;
55575;SDS011;41437;45.478;9.116;2023-03-26T18:18:52;8.23;;;4.32;;
55575;SDS011;41437;45.478;9.116;2023-03-26T18:21:56;7.63;;;4.40;;
55575;SDS011;41437;45.478;9.116;2023-03-26T18:25:00;7.35;;;4.22;;
55575;SDS011;41437;45.478;9.116;2023-03-26T18:28:04;7.15;;;4.18;;
55575;SDS011;41437;45.478;9.116;2023-03-26T18:31:07;6.70;;;4.40;;
55575;SDS011;41437;45.478;9.116;2023-03-26T18:34:13;7.80;;;5.00;;
55575;SDS011;41437;45.478;9.116;2023-03-26T18:37:18;7.47;;;4.50;;
55575;SDS011;41437;45.478;9.116;2023-03-26T18:40:22;6.53;;;4.53;;
55575;SDS011;41437;45.478;9.116;2023-03-26T18:43:24;8.60;;;4.57;;
55575;SDS011;41437;45.478;9.116;2023-03-26T18:46:25;8.57;;;4.60;;
55575;SDS011;41437;45.478;9.116;2023-03-26T18:49:30;8.05;;;4.70;;
55575;SDS011;41437;45.478;9.116;2023-03-26T18:52:32;8.07;;;4.47;;
55575;SDS011;41437;45.478;9.116;2023-03-26T18:55:34;7.88;;;4.80;;
55575;SDS011;41437;45.478;9.116;2023-03-26T18:58:38;7.40;;;4.60;;
55575;SDS011;41437;45.478;9.116;2023-03-26T19:01:39;9.48;;;5.47;;
55575;SDS011;41437;45.478;9.116;2023-03-26T19:04:45;11.50;;;7.13;;
55575;SDS011;41437;45.478;9.116;2023-03-26T19:07:48;9.68;;;5.93;;
55575;SDS011;41437;45.478;9.116;2023-03-26T19:10:52;9.88;;;5.82;;
55575;SDS011;41437;45.478;9.116;2023-03-26T19:13:58;9.00;;;5.07;;
55575;SDS011;41437;45.478;9.116;2023-03-26T19:17:02;11.60;;;6.70;;
55575;SDS011;41437;45.478;9.116;2023-03-26T19:20:11;10.27;;;6.72;;
55575;SDS011;41437;45.478;9.116;2023-03-26T19:23:14;12.45;;;8.68;;
55575;SDS011;41437;45.478;9.116;2023-03-26T19:26:17;12.68;;;9.25;;